createdAt,value
2022-11-29T00:01:24.998Z,83.03
2022-11-29T00:03:28.391Z,86.70
2022-11-29T00:05:30.644Z,85.83
2022-11-29T00:07:32.880Z,97.37
2022-11-29T00:09:34.889Z,92.53
2022-11-29T00:11:56.745Z,87.03
2022-11-29T00:13:58.730Z,91.33
2022-11-29T00:16:06.018Z,98.43
2022-11-29T00:18:11.287Z,96.53
2022-11-29T00:20:13.712Z,81.20
2022-11-29T00:22:15.841Z,85.63
2022-11-29T00:24:18.223Z,125.03
2022-11-29T00:26:20.203Z,155.23
2022-11-29T00:28:22.557Z,131.60
2022-11-29T00:30:24.892Z,105.30
2022-11-29T00:32:27.499Z,94.20
2022-11-29T00:34:29.454Z,104.97
2022-11-29T00:36:31.594Z,92.73
2022-11-29T00:38:33.564Z,86.63
2022-11-29T00:40:35.690Z,89.80
2022-11-29T00:42:40.171Z,101.67
2022-11-29T00:44:42.425Z,108.70
2022-11-29T00:46:44.626Z,98.53
2022-11-29T00:48:47.037Z,108.73
2022-11-29T00:50:49.043Z,93.97
2022-11-29T00:52:51.124Z,87.00
2022-11-29T00:54:53.047Z,95.93
2022-11-29T00:56:55.097Z,86.10
2022-11-29T00:58:57.451Z,85.10
2022-11-29T01:00:59.645Z,84.77
2022-11-29T01:03:02.013Z,84.03
2022-11-29T01:05:04.312Z,84.33
2022-11-29T01:07:06.739Z,89.10
2022-11-29T01:09:09.309Z,86.23
2022-11-29T01:11:21.360Z,89.37
2022-11-29T01:13:23.659Z,91.30
2022-11-29T01:15:26.331Z,97.87
2022-11-29T01:17:28.526Z,78.70
2022-11-29T01:19:30.370Z,77.07
2022-11-29T01:21:33.126Z,79.67
2022-11-29T01:23:36.452Z,71.53
2022-11-29T01:25:38.626Z,81.67
2022-11-29T01:27:41.079Z,77.77
2022-11-29T01:29:43.277Z,80.47
2022-11-29T01:31:45.271Z,73.13
2022-11-29T01:33:47.617Z,66.10
2022-11-29T01:35:55.002Z,65.10
2022-11-29T01:37:57.518Z,60.67
2022-11-29T01:40:01.840Z,58.37
2022-11-29T01:42:06.611Z,60.07
2022-11-29T01:44:14.766Z,60.90
2022-11-29T01:46:20.113Z,57.13
2022-11-29T01:48:33.212Z,60.73
2022-11-29T01:50:35.488Z,58.37
2022-11-29T01:52:38.722Z,57.83
2022-11-29T01:54:50.012Z,58.00
2022-11-29T01:56:53.235Z,60.23
2022-11-29T01:59:05.251Z,60.63
2022-11-29T02:01:07.513Z,56.63
2022-11-29T02:03:14.360Z,69.97
2022-11-29T02:05:18.806Z,77.23
2022-11-29T02:07:21.188Z,73.90
2022-11-29T02:09:25.508Z,70.83
2022-11-29T02:11:52.068Z,69.37
2022-11-29T02:14:22.904Z,59.50
2022-11-29T02:16:29.810Z,56.57
2022-11-29T02:18:34.717Z,55.50
2022-11-29T02:20:55.562Z,55.53
2022-11-29T02:23:27.488Z,56.13
2022-11-29T02:25:29.622Z,60.60
2022-11-29T02:27:53.387Z,56.77
2022-11-29T02:30:17.505Z,71.50
2022-11-29T02:33:07.375Z,67.27
2022-11-29T02:35:28.143Z,62.57
2022-11-29T02:38:00.364Z,64.57
2022-11-29T02:40:28.745Z,68.33
2022-11-29T02:42:58.528Z,65.17
2022-11-29T02:45:08.414Z,67.63
2022-11-29T02:47:39.058Z,70.10
2022-11-29T02:50:02.501Z,61.87
2022-11-29T02:52:15.479Z,60.97
2022-11-29T02:54:45.735Z,61.37
2022-11-29T02:57:00.344Z,55.80
2022-11-29T02:59:20.858Z,58.77
2022-11-29T03:02:05.173Z,57.40
2022-11-29T03:04:26.366Z,59.47
2022-11-29T03:06:44.371Z,51.73
2022-11-29T03:08:52.248Z,48.80
2022-11-29T03:11:18.213Z,47.37
2022-11-29T03:13:47.156Z,43.83
2022-11-29T03:16:21.557Z,46.57
2022-11-29T03:18:35.602Z,45.67
2022-11-29T03:21:15.498Z,46.73
2022-11-29T03:23:39.013Z,45.37
2022-11-29T03:25:57.609Z,56.83
2022-11-29T03:28:13.625Z,53.77
2022-11-29T03:30:19.224Z,52.27
2022-11-29T03:32:35.665Z,49.57
2022-11-29T03:35:18.859Z,45.23
2022-11-29T03:37:28.214Z,44.60
2022-11-29T03:39:51.178Z,46.30
2022-11-29T03:42:02.599Z,48.20
2022-11-29T03:44:15.954Z,55.97
2022-11-29T03:46:28.763Z,62.20
2022-11-29T03:48:37.138Z,55.73
2022-11-29T03:50:52.098Z,56.53
2022-11-29T03:52:55.228Z,52.57
2022-11-29T03:55:09.391Z,50.27
2022-11-29T03:57:14.302Z,52.17
2022-11-29T03:59:36.755Z,53.37
2022-11-29T04:01:54.991Z,51.53
2022-11-29T04:04:21.405Z,50.17
2022-11-29T04:07:39.031Z,55.70
2022-11-29T04:10:14.808Z,64.67
2022-11-29T04:12:38.246Z,56.87
2022-11-29T04:15:15.346Z,53.23
2022-11-29T04:17:23.633Z,68.73
2022-11-29T04:19:38.203Z,64.87
2022-11-29T04:22:05.076Z,58.30
2022-11-29T04:24:41.046Z,47.63
2022-11-29T04:27:04.141Z,52.77
2022-11-29T04:29:32.096Z,55.20
2022-11-29T04:31:39.362Z,51.33
2022-11-29T04:34:00.085Z,58.50
2022-11-29T04:36:20.506Z,49.93
2022-11-29T04:38:25.538Z,44.43
2022-11-29T04:40:50.971Z,39.20
2022-11-29T04:43:11.631Z,41.27
2022-11-29T04:45:39.769Z,39.70
2022-11-29T04:48:20.457Z,39.00
2022-11-29T04:50:36.408Z,40.07
2022-11-29T04:53:20.172Z,41.13
2022-11-29T04:55:47.032Z,44.93
2022-11-29T04:57:55.551Z,43.70
2022-11-29T05:00:11.122Z,38.97
2022-11-29T05:02:40.851Z,37.67
2022-11-29T05:05:04.882Z,38.60
2022-11-29T05:07:18.155Z,39.43
2022-11-29T05:09:29.416Z,45.07
2022-11-29T05:11:54.136Z,48.50
2022-11-29T05:14:22.348Z,49.23
2022-11-29T05:16:46.644Z,65.80
2022-11-29T05:19:03.838Z,75.17
2022-11-29T05:21:11.666Z,75.63
2022-11-29T05:23:41.276Z,58.37
2022-11-29T05:25:55.736Z,53.97
2022-11-29T05:28:20.701Z,47.50
2022-11-29T05:30:25.568Z,45.50
2022-11-29T05:32:30.957Z,40.67
2022-11-29T05:34:44.980Z,38.33
2022-11-29T05:36:51.840Z,39.40
2022-11-29T05:38:53.871Z,34.77
2022-11-29T05:41:14.154Z,30.50
2022-11-29T05:43:37.474Z,34.60
2022-11-29T05:46:03.977Z,28.10
2022-11-29T05:48:17.815Z,29.37
2022-11-29T05:50:55.910Z,27.47
2022-11-29T05:53:58.453Z,29.13
2022-11-29T05:56:13.467Z,34.33
2022-11-29T05:58:30.033Z,49.67
2022-11-29T06:00:51.669Z,58.33
2022-11-29T06:03:06.446Z,59.03
2022-11-29T06:05:13.273Z,53.90
2022-11-29T06:07:22.696Z,56.33
2022-11-29T06:09:50.178Z,47.27
2022-11-29T06:12:05.533Z,46.87
2022-11-29T06:14:16.142Z,46.87
2022-11-29T06:16:17.938Z,44.60
2022-11-29T06:18:23.873Z,51.33
2022-11-29T06:20:26.416Z,46.93
2022-11-29T06:22:52.833Z,41.07
2022-11-29T06:24:56.595Z,33.30
2022-11-29T06:27:32.066Z,27.43
2022-11-29T06:29:43.096Z,38.10
2022-11-29T06:31:50.576Z,34.50
2022-11-29T06:34:04.136Z,40.97
2022-11-29T06:36:25.743Z,37.50
2022-11-29T06:38:30.115Z,48.87
2022-11-29T06:40:33.169Z,61.10
2022-11-29T06:42:34.860Z,111.40
2022-11-29T06:44:37.013Z,81.97
2022-11-29T06:46:54.786Z,70.13
2022-11-29T06:49:14.414Z,51.50
2022-11-29T06:51:40.936Z,42.43
2022-11-29T06:54:02.322Z,41.37
2022-11-29T06:56:14.145Z,37.70
2022-11-29T06:58:44.638Z,39.80
2022-11-29T07:00:59.905Z,37.23
2022-11-29T07:03:20.389Z,44.10
2022-11-29T07:05:29.537Z,56.70
2022-11-29T07:07:34.629Z,42.43
2022-11-29T07:09:36.807Z,46.13
2022-11-29T07:11:39.393Z,43.53
2022-11-29T07:13:41.506Z,40.30
2022-11-29T07:15:55.493Z,44.10
2022-11-29T07:18:00.183Z,49.77
2022-11-29T07:20:26.325Z,54.57
2022-11-29T07:22:37.177Z,46.23
2022-11-29T07:24:51.109Z,41.27
2022-11-29T07:27:29.440Z,34.33
2022-11-29T07:29:43.042Z,37.77
2022-11-29T07:32:05.885Z,36.70
2022-11-29T07:34:22.179Z,41.33
2022-11-29T07:37:09.109Z,36.87
2022-11-29T07:39:21.494Z,35.93
2022-11-29T07:41:39.398Z,35.00
2022-11-29T07:44:07.273Z,40.30
2022-11-29T07:46:09.495Z,40.60
2022-11-29T07:48:12.964Z,43.47
2022-11-29T07:50:14.912Z,45.37
2022-11-29T07:52:17.533Z,44.53
2022-11-29T07:54:20.181Z,40.70
2022-11-29T07:56:22.112Z,46.90
2022-11-29T07:58:25.047Z,47.43
2022-11-29T08:00:26.928Z,42.13
2022-11-29T08:02:29.940Z,32.17
2022-11-29T08:04:31.938Z,30.63
2022-11-29T08:06:34.050Z,28.90
2022-11-29T08:08:40.692Z,26.37
2022-11-29T08:10:45.649Z,23.07
2022-11-29T08:12:50.494Z,25.10
2022-11-29T08:14:52.191Z,28.67
2022-11-29T08:16:53.961Z,32.03
2022-11-29T08:18:56.041Z,31.77
2022-11-29T08:20:57.902Z,32.70
2022-11-29T08:23:00.632Z,31.23
2022-11-29T08:25:02.663Z,27.77
2022-11-29T08:27:04.580Z,28.57
2022-11-29T08:29:06.618Z,32.97
2022-11-29T08:31:11.888Z,26.37
2022-11-29T08:33:13.721Z,24.97
2022-11-29T08:35:16.593Z,17.63
2022-11-29T08:37:18.553Z,17.40
2022-11-29T08:39:20.748Z,20.87
2022-11-29T08:41:22.937Z,19.37
2022-11-29T08:43:24.966Z,21.10
2022-11-29T08:45:26.868Z,21.30
2022-11-29T08:47:37.871Z,22.33
2022-11-29T08:50:00.099Z,21.83
2022-11-29T08:52:28.278Z,21.73
2022-11-29T08:54:30.661Z,23.27
2022-11-29T08:57:16.629Z,21.00
2022-11-29T08:58:54.298Z,23.17
2022-11-29T09:00:56.325Z,20.83
2022-11-29T09:03:18.274Z,20.97
2022-11-29T09:05:20.508Z,20.10
2022-11-29T09:07:22.690Z,20.10
2022-11-29T09:09:24.478Z,20.13
2022-11-29T09:11:28.075Z,19.93
2022-11-29T09:13:30.201Z,18.10
2022-11-29T09:15:32.203Z,17.57
2022-11-29T09:17:34.299Z,16.10
2022-11-29T09:19:36.087Z,15.77
2022-11-29T09:21:37.945Z,15.27
2022-11-29T09:23:41.684Z,15.13
2022-11-29T09:25:51.128Z,14.20
2022-11-29T09:27:53.091Z,16.10
2022-11-29T09:29:54.912Z,15.20
2022-11-29T09:31:57.060Z,17.97
2022-11-29T09:33:59.339Z,17.73
2022-11-29T09:36:02.794Z,19.20
2022-11-29T09:38:04.686Z,21.00
2022-11-29T09:40:07.326Z,17.80
2022-11-29T09:42:22.780Z,22.43
2022-11-29T09:44:42.831Z,17.77
2022-11-29T09:47:21.008Z,16.77
2022-11-29T09:49:52.126Z,19.77
2022-11-29T09:52:13.233Z,16.67
2022-11-29T09:54:33.370Z,19.47
2022-11-29T09:56:47.035Z,19.43
2022-11-29T09:58:52.007Z,21.17
2022-11-29T10:01:08.411Z,20.57
2022-11-29T10:03:23.517Z,17.37
2022-11-29T10:05:30.835Z,24.73
2022-11-29T10:07:41.074Z,25.70
2022-11-29T10:09:43.040Z,21.50
2022-11-29T10:12:03.167Z,23.60
2022-11-29T10:14:27.002Z,24.30
2022-11-29T10:16:41.523Z,27.87
2022-11-29T10:18:49.889Z,29.13
2022-11-29T10:20:58.620Z,28.13
2022-11-29T10:23:03.974Z,29.73
2022-11-29T10:25:08.950Z,27.43
2022-11-29T10:27:30.947Z,24.90
2022-11-29T10:29:33.526Z,26.20
2022-11-29T10:31:40.414Z,16.90
2022-11-29T10:33:43.745Z,15.47
2022-11-29T10:35:48.198Z,15.27
2022-11-29T10:38:22.602Z,15.60
2022-11-29T10:40:21.446Z,16.57
2022-11-29T10:42:44.904Z,22.63
2022-11-29T10:44:47.426Z,21.00
2022-11-29T10:46:49.893Z,28.83
2022-11-29T10:48:53.406Z,30.73
2022-11-29T10:50:55.519Z,26.80
2022-11-29T10:53:27.295Z,27.10
2022-11-29T10:55:39.030Z,31.73
2022-11-29T10:58:24.706Z,39.00
2022-11-29T11:00:29.588Z,34.60
2022-11-29T11:02:32.398Z,29.33
2022-11-29T11:04:42.268Z,30.20
2022-11-29T11:06:49.546Z,36.43
2022-11-29T11:08:57.170Z,40.20
2022-11-29T11:11:02.031Z,39.73
2022-11-29T11:13:21.642Z,38.83
2022-11-29T11:15:31.821Z,36.20
2022-11-29T11:17:34.004Z,42.37
2022-11-29T11:19:37.478Z,36.63
2022-11-29T11:21:39.510Z,36.43
2022-11-29T11:24:01.927Z,69.43
2022-11-29T11:26:11.401Z,110.30
2022-11-29T11:28:32.742Z,251.20
2022-11-29T11:30:34.818Z,179.87
2022-11-29T11:32:37.290Z,120.23
2022-11-29T11:34:50.034Z,72.03
2022-11-29T11:36:53.779Z,73.50
2022-11-29T11:39:58.424Z,68.60
2022-11-29T11:42:22.565Z,244.47
2022-11-29T11:44:52.588Z,233.80
2022-11-29T11:46:55.058Z,130.27
2022-11-29T11:48:57.254Z,82.47
2022-11-29T11:51:01.740Z,57.10
2022-11-29T11:53:18.590Z,45.10
2022-11-29T11:55:44.041Z,40.23
2022-11-29T11:57:58.170Z,33.17
2022-11-29T12:00:06.595Z,26.40
2022-11-29T12:02:38.085Z,27.47
2022-11-29T12:04:40.411Z,30.00
2022-11-29T12:07:10.077Z,31.43
2022-11-29T12:09:39.736Z,31.50
2022-11-29T12:12:02.243Z,29.60
2022-11-29T12:14:06.268Z,29.83
2022-11-29T12:16:16.687Z,47.47
2022-11-29T12:18:38.199Z,59.23
2022-11-29T12:20:59.166Z,65.30
2022-11-29T12:23:13.369Z,75.43
2022-11-29T12:25:22.013Z,68.67
2022-11-29T12:27:23.982Z,52.13
2022-11-29T12:29:31.940Z,53.87
2022-11-29T12:31:45.232Z,49.97
2022-11-29T12:34:02.571Z,72.72
2022-11-29T12:36:05.988Z,63.92
2022-11-29T12:38:23.025Z,42.40
2022-11-29T12:40:43.252Z,36.97
2022-11-29T12:43:20.261Z,33.53
2022-11-29T12:45:41.170Z,28.90
2022-11-29T12:48:05.302Z,25.67
2022-11-29T12:50:39.056Z,28.13
2022-11-29T12:52:54.157Z,30.38
2022-11-29T12:55:16.406Z,30.40
2022-11-29T12:58:07.673Z,39.70
2022-11-29T13:00:14.394Z,33.20
2022-11-29T13:02:46.689Z,32.53
2022-11-29T13:04:59.952Z,29.03
2022-11-29T13:07:07.983Z,24.97
2022-11-29T13:09:46.035Z,27.53
2022-11-29T13:12:06.176Z,30.77
2022-11-29T13:14:42.092Z,23.73
2022-11-29T13:17:04.139Z,24.60
2022-11-29T13:19:17.664Z,27.30
2022-11-29T13:21:32.223Z,29.47
2022-11-29T13:24:09.142Z,28.13
2022-11-29T13:26:13.770Z,25.23
2022-11-29T13:28:26.322Z,22.43
2022-11-29T13:30:28.377Z,22.97
2022-11-29T13:32:49.199Z,23.20
2022-11-29T13:34:54.213Z,23.17
2022-11-29T13:37:02.418Z,23.13
2022-11-29T13:39:35.072Z,27.30
2022-11-29T13:41:42.307Z,26.80
2022-11-29T13:44:25.705Z,27.27
2022-11-29T13:46:36.357Z,31.73
2022-11-29T13:48:46.759Z,26.93
2022-11-29T13:50:51.442Z,32.27
2022-11-29T13:53:04.551Z,31.03
2022-11-29T13:55:31.595Z,31.07
2022-11-29T14:00:32.140Z,57.17
2022-11-29T14:02:35.216Z,62.97
2022-11-29T14:04:39.899Z,107.37
2022-11-29T14:06:42.442Z,96.57
2022-11-29T14:11:15.296Z,87.47
2022-11-29T14:13:17.714Z,76.10
2022-11-29T14:15:32.512Z,64.70
2022-11-29T14:17:59.155Z,57.77
2022-11-29T14:20:22.666Z,59.60
2022-11-29T14:22:24.734Z,51.53
2022-11-29T14:24:32.699Z,54.03
2022-11-29T14:26:34.760Z,44.00
2022-11-29T14:28:39.206Z,44.80
2022-11-29T14:31:29.586Z,45.63
2022-11-29T14:33:46.694Z,40.77
2022-11-29T14:36:21.896Z,40.00
2022-11-29T14:39:05.180Z,41.57
2022-11-29T14:41:25.837Z,40.83
2022-11-29T14:43:33.575Z,42.33
2022-11-29T14:45:35.851Z,45.83
2022-11-29T14:47:48.263Z,39.57
2022-11-29T14:49:53.271Z,37.70
2022-11-29T14:52:24.326Z,40.90
2022-11-29T14:54:26.782Z,37.93
2022-11-29T14:56:42.785Z,37.67
2022-11-29T14:58:48.173Z,45.30
2022-11-29T15:00:50.076Z,48.30
2022-11-29T15:03:21.911Z,50.17
2022-11-29T15:05:24.618Z,51.17
2022-11-29T15:07:32.040Z,50.33
2022-11-29T15:09:36.516Z,52.57
2022-11-29T15:11:53.281Z,48.97
2022-11-29T15:14:04.150Z,48.40
2022-11-29T15:16:29.074Z,46.63
2022-11-29T15:18:55.346Z,48.00
2022-11-29T15:21:32.884Z,54.30
2022-11-29T15:23:44.360Z,55.33
2022-11-29T15:25:52.739Z,67.53
2022-11-29T15:28:01.456Z,86.07
2022-11-29T15:30:39.957Z,92.13
2022-11-29T15:32:44.104Z,85.43
2022-11-29T15:34:51.820Z,88.70
2022-11-29T15:36:53.986Z,72.57
2022-11-29T15:38:57.531Z,71.67
2022-11-29T15:40:59.716Z,59.87
2022-11-29T15:43:14.079Z,58.23
2022-11-29T15:45:27.001Z,48.40
2022-11-29T15:47:29.226Z,46.73
2022-11-29T15:49:32.022Z,51.63
2022-11-29T15:51:38.071Z,45.03
2022-11-29T15:53:48.869Z,43.97
2022-11-29T15:55:53.541Z,56.57
2022-11-29T15:58:06.991Z,54.00
2022-11-29T16:00:31.799Z,53.37
2022-11-29T16:02:37.365Z,49.00
2022-11-29T16:04:46.798Z,43.40
2022-11-29T16:06:50.413Z,57.10
2022-11-29T16:08:54.588Z,59.73
2022-11-29T16:10:57.959Z,62.53
2022-11-29T16:13:26.312Z,66.70
2022-11-29T16:15:37.403Z,76.50
2022-11-29T16:17:39.411Z,108.67
2022-11-29T16:19:43.310Z,117.00
2022-11-29T16:21:45.670Z,133.57
2022-11-29T16:23:47.782Z,130.43
2022-11-29T16:26:04.780Z,127.20
2022-11-29T16:28:12.784Z,116.70
2022-11-29T16:31:18.032Z,117.07
2022-11-29T16:33:24.111Z,129.93
2022-11-29T16:35:33.939Z,122.47
2022-11-29T16:37:54.149Z,115.30
2022-11-29T16:40:31.683Z,114.10
2022-11-29T16:42:35.138Z,102.63
2022-11-29T16:44:40.005Z,104.53
2022-11-29T16:46:43.610Z,104.23
2022-11-29T16:48:45.984Z,104.73
2022-11-29T16:51:51.802Z,111.17
2022-11-29T16:54:17.246Z,179.17
2022-11-29T16:56:23.030Z,220.37
2022-11-29T16:58:25.105Z,209.80
2022-11-29T17:00:33.957Z,200.97
2022-11-29T17:02:36.321Z,181.33
2022-11-29T17:04:41.685Z,174.67
2022-11-29T17:06:44.490Z,160.50
2022-11-29T17:08:46.592Z,164.17
2022-11-29T17:10:48.644Z,159.03
2022-11-29T17:12:50.978Z,150.53
2022-11-29T17:14:53.343Z,130.87
2022-11-29T17:16:55.849Z,123.07
2022-11-29T17:18:58.006Z,125.90
2022-11-29T17:21:00.218Z,119.73
2022-11-29T17:23:02.375Z,108.37
2022-11-29T17:25:05.032Z,99.23
2022-11-29T17:27:07.668Z,97.83
2022-11-29T17:29:10.984Z,95.93
2022-11-29T17:31:18.430Z,91.83
2022-11-29T17:33:24.585Z,83.47
2022-11-29T17:35:26.859Z,86.27
2022-11-29T17:37:31.849Z,79.93
2022-11-29T17:39:34.480Z,72.13
2022-11-29T17:41:36.739Z,69.57
2022-11-29T17:47:26.411Z,65.53
2022-11-29T17:49:28.785Z,64.67
2022-11-29T17:53:54.583Z,76.37
2022-11-29T17:56:03.635Z,83.40
2022-11-29T17:58:05.760Z,75.60
2022-11-29T18:00:13.522Z,64.77
2022-11-29T18:02:15.894Z,57.70
2022-11-29T18:04:18.424Z,53.67
2022-11-29T18:06:23.266Z,58.53
2022-11-29T18:09:28.790Z,59.47
2022-11-29T18:11:46.857Z,55.67
2022-11-29T18:13:50.799Z,65.97
2022-11-29T18:15:53.104Z,81.83
2022-11-29T18:17:57.467Z,75.43
2022-11-29T18:19:59.475Z,65.20
2022-11-29T18:22:32.811Z,62.80
2022-11-29T18:24:37.809Z,69.57
2022-11-29T18:26:40.897Z,57.33
2022-11-29T18:28:44.687Z,60.23
2022-11-29T18:30:48.724Z,65.50
2022-11-29T18:32:50.871Z,54.77
2022-11-29T18:34:53.224Z,52.17
2022-11-29T18:36:55.642Z,65.23
2022-11-29T18:39:00.517Z,69.47
2022-11-29T18:41:35.711Z,56.53
2022-11-29T18:43:40.100Z,50.70
2022-11-29T18:45:42.334Z,47.73
2022-11-29T18:47:45.572Z,47.67
2022-11-29T18:49:47.728Z,66.73
2022-11-29T18:51:50.461Z,78.67
2022-11-29T18:53:52.566Z,98.07
2022-11-29T18:56:05.722Z,82.50
2022-11-29T18:58:08.708Z,67.33
2022-11-29T19:00:11.611Z,67.50
2022-11-29T19:02:15.693Z,67.00
2022-11-29T19:04:21.550Z,67.03
2022-11-29T19:06:37.132Z,69.47
2022-11-29T19:08:41.939Z,75.67
2022-11-29T19:10:44.890Z,75.70
2022-11-29T19:12:47.147Z,73.70
2022-11-29T19:14:50.142Z,69.03
2022-11-29T19:16:52.588Z,67.77
2022-11-29T19:18:56.228Z,70.30
2022-11-29T19:21:13.119Z,75.23
2022-11-29T19:23:15.932Z,72.17
2022-11-29T19:25:17.825Z,77.57
2022-11-29T19:27:21.370Z,72.20
2022-11-29T19:29:23.499Z,81.37
2022-11-29T19:31:27.167Z,75.93
2022-11-29T19:33:29.339Z,67.93
2022-11-29T19:35:31.228Z,61.27
2022-11-29T19:37:34.169Z,60.57
2022-11-29T19:39:36.210Z,55.47
2022-11-29T19:41:38.414Z,50.57
2022-11-29T19:43:40.546Z,49.07
2022-11-29T19:45:42.518Z,48.60
2022-11-29T19:47:44.651Z,42.67
2022-11-29T19:49:50.052Z,44.80
2022-11-29T19:51:52.149Z,39.07
2022-11-29T19:54:00.327Z,37.97
2022-11-29T19:56:11.256Z,37.27
2022-11-29T19:58:13.240Z,34.03
2022-11-29T20:00:16.050Z,28.37
2022-11-29T20:02:19.433Z,33.67
2022-11-29T20:04:21.629Z,27.63
2022-11-29T20:06:26.369Z,32.40
2022-11-29T20:09:18.839Z,37.10
2022-11-29T20:11:22.954Z,34.80
2022-11-29T20:13:25.373Z,36.90
2022-11-29T20:15:27.167Z,39.13
2022-11-29T20:17:29.328Z,36.37
2022-11-29T20:19:31.380Z,37.03
2022-11-29T20:21:34.076Z,30.53
2022-11-29T20:23:35.925Z,26.87
2022-11-29T20:25:37.857Z,25.37
2022-11-29T20:27:40.219Z,22.10
2022-11-29T20:29:42.412Z,23.23
2022-11-29T20:31:49.978Z,20.80
2022-11-29T20:33:54.420Z,20.63
2022-11-29T20:36:24.020Z,22.37
2022-11-29T20:38:42.544Z,22.03
2022-11-29T20:41:02.782Z,22.37
2022-11-29T20:43:18.957Z,32.30
2022-11-29T20:45:21.290Z,46.13
2022-11-29T20:47:28.011Z,72.47
2022-11-29T20:49:30.294Z,63.27
2022-11-29T20:51:41.285Z,71.10
2022-11-29T20:53:46.273Z,59.27
2022-11-29T20:55:49.292Z,61.60
2022-11-29T20:57:51.253Z,62.13
2022-11-29T20:59:53.429Z,73.23
2022-11-29T21:01:57.857Z,59.83
2022-11-29T21:04:05.378Z,37.47
2022-11-29T21:06:07.593Z,54.80
2022-11-29T21:08:11.546Z,62.63
2022-11-29T21:10:15.675Z,73.43
2022-11-29T21:12:18.296Z,72.10
2022-11-29T21:14:20.533Z,76.67
2022-11-29T21:16:32.653Z,75.70
2022-11-29T21:22:30.401Z,83.80
2022-11-29T21:24:57.482Z,80.60
2022-11-29T21:26:59.409Z,76.93
2022-11-29T21:29:17.452Z,80.47
2022-11-29T21:31:19.970Z,67.23
2022-11-29T21:33:22.540Z,80.30
2022-11-29T21:35:24.552Z,90.10
2022-11-29T21:37:33.411Z,97.30
2022-11-29T21:39:35.955Z,107.93
2022-11-29T21:41:38.251Z,106.97
2022-11-29T21:44:05.485Z,120.17
2022-11-29T21:46:03.230Z,114.50
2022-11-29T21:48:25.765Z,95.23
2022-11-29T21:50:28.169Z,91.90
2022-11-29T21:52:30.096Z,83.37
2022-11-29T21:54:32.957Z,80.27
2022-11-29T21:56:34.993Z,67.63
2022-11-29T21:58:38.896Z,64.90
2022-11-29T22:00:41.508Z,64.33
2022-11-29T22:02:44.066Z,71.10
2022-11-29T22:04:46.680Z,66.50
2022-11-29T22:06:51.110Z,60.03
2022-11-29T22:08:53.371Z,69.40
2022-11-29T22:11:08.835Z,67.90
2022-11-29T22:13:16.426Z,70.63
2022-11-29T22:15:24.181Z,64.53
2022-11-29T22:17:27.437Z,61.30
2022-11-29T22:19:34.968Z,57.73
2022-11-29T22:21:37.239Z,54.17
2022-11-29T22:23:39.365Z,51.60
2022-11-29T22:25:41.449Z,53.37
2022-11-29T22:27:43.366Z,54.17
2022-11-29T22:29:45.710Z,51.07
2022-11-29T22:31:52.048Z,48.23
2022-11-29T22:33:54.666Z,47.93
2022-11-29T22:35:57.048Z,56.60
2022-11-29T22:37:59.041Z,61.50
2022-11-29T22:40:01.118Z,56.20
2022-11-29T22:42:03.500Z,70.93
2022-11-29T22:44:06.555Z,69.87
2022-11-29T22:46:12.470Z,72.57
2022-11-29T22:48:14.589Z,68.80
2022-11-29T22:50:17.094Z,60.73
2022-11-29T22:52:19.255Z,59.97
2022-11-29T22:54:21.332Z,56.93
2022-11-29T22:56:26.192Z,62.80
2022-11-29T22:58:31.617Z,62.23
2022-11-29T23:00:35.094Z,80.77
2022-11-29T23:02:37.208Z,85.90
2022-11-29T23:04:39.424Z,90.70
2022-11-29T23:06:44.371Z,77.77
2022-11-29T23:08:48.164Z,72.33
2022-11-29T23:10:57.645Z,66.50
2022-11-29T23:12:59.871Z,72.43
2022-11-29T23:15:02.895Z,64.30
2022-11-29T23:17:04.918Z,67.63
2022-11-29T23:19:07.264Z,73.13
2022-11-29T23:21:13.607Z,76.40
2022-11-29T23:23:15.885Z,72.77
2022-11-29T23:25:18.117Z,66.40
2022-11-29T23:27:20.581Z,64.70
2022-11-29T23:29:22.716Z,59.17
2022-11-29T23:31:25.069Z,67.43
2022-11-29T23:33:28.334Z,69.73
2022-11-29T23:35:30.538Z,63.80
2022-11-29T23:37:32.620Z,61.87
2022-11-29T23:39:34.775Z,66.10
2022-11-29T23:41:37.283Z,94.03
2022-11-29T23:43:40.850Z,150.57
2022-11-29T23:45:42.992Z,147.87
2022-11-29T23:47:45.434Z,113.77
2022-11-29T23:49:47.528Z,81.37
2022-11-29T23:51:52.259Z,62.60
2022-11-29T23:53:54.496Z,63.73
2022-11-29T23:56:01.243Z,63.97
2022-11-29T23:58:03.440Z,54.93
